sensor_id;sensor_type;location;lat;lon;timestamp;pressure;altitude;pressure_sealevel;temperature;humidity
65880;BME280;52661;51.364;6.054;2022-08-01T00:00:34;101360.63;;;19.88;98.65
65880;BME280;52661;51.364;6.054;2022-08-01T00:02:59;101362.94;;;19.90;98.45
65880;BME280;52661;51.364;6.054;2022-08-01T00:05:25;101365.72;;;20.02;98.21
65880;BME280;52661;51.364;6.054;2022-08-01T00:07:50;101358.13;;;20.06;97.70
65880;BME280;52661;51.364;6.054;2022-08-01T00:10:16;101363.19;;;20.08;97.51
65880;BME280;52661;51.364;6.054;2022-08-01T00:12:43;101361.31;;;20.05;97.77
65880;BME280;52661;51.364;6.054;2022-08-01T00:15:10;101360.53;;;20.04;97.77
65880;BME280;52661;51.364;6.054;2022-08-01T00:17:36;101369.66;;;19.89;98.93
65880;BME280;52661;51.364;6.054;2022-08-01T00:20:04;101370.09;;;19.87;98.97
65880;BME280;52661;51.364;6.054;2022-08-01T00:22:31;101369.75;;;19.85;99.43
65880;BME280;52661;51.364;6.054;2022-08-01T00:24:57;101366.72;;;19.96;98.89
65880;BME280;52661;51.364;6.054;2022-08-01T00:27:22;101357.09;;;19.88;98.58
65880;BME280;52661;51.364;6.054;2022-08-01T00:29:47;101360.72;;;19.85;98.64
65880;BME280;52661;51.364;6.054;2022-08-01T00:32:13;101357.81;;;19.76;99.90
65880;BME280;52661;51.364;6.054;2022-08-01T00:34:38;101365.66;;;19.77;99.89
65880;BME280;52661;51.364;6.054;2022-08-01T00:37:04;101364.34;;;19.82;99.47
65880;BME280;52661;51.364;6.054;2022-08-01T00:39:29;101358.50;;;19.80;99.53
65880;BME280;52661;51.364;6.054;2022-08-01T00:41:54;101360.56;;;19.76;99.85
65880;BME280;52661;51.364;6.054;2022-08-01T00:44:20;101358.94;;;19.78;99.43
65880;BME280;52661;51.364;6.054;2022-08-01T00:46:45;101358.84;;;19.82;98.93
65880;BME280;52661;51.364;6.054;2022-08-01T00:49:11;101360.56;;;19.76;99.08
65880;BME280;52661;51.364;6.054;2022-08-01T00:51:36;101355.75;;;19.80;99.43
65880;BME280;52661;51.364;6.054;2022-08-01T00:54:02;101362.69;;;19.84;99.05
65880;BME280;52661;51.364;6.054;2022-08-01T00:56:28;101361.50;;;19.85;98.64
65880;BME280;52661;51.364;6.054;2022-08-01T00:58:54;101364.69;;;19.84;98.45
65880;BME280;52661;51.364;6.054;2022-08-01T01:01:21;101360.16;;;19.77;99.12
65880;BME280;52661;51.364;6.054;2022-08-01T01:03:51;101363.22;;;19.79;98.95
65880;BME280;52661;51.364;6.054;2022-08-01T01:06:39;101358.16;;;19.78;99.15
65880;BME280;52661;51.364;6.054;2022-08-01T01:12:06;101358.38;;;19.83;98.92
65880;BME280;52661;51.364;6.054;2022-08-01T01:14:38;101361.16;;;19.83;98.88
65880;BME280;52661;51.364;6.054;2022-08-01T01:17:11;101371.88;;;19.94;98.73
65880;BME280;52661;51.364;6.054;2022-08-01T01:19:45;101369.00;;;19.97;98.44
65880;BME280;52661;51.364;6.054;2022-08-01T01:22:20;101366.34;;;19.94;98.52
65880;BME280;52661;51.364;6.054;2022-08-01T01:24:56;101370.66;;;19.95;98.40
65880;BME280;52661;51.364;6.054;2022-08-01T01:28:05;101374.81;;;19.87;98.67
65880;BME280;52661;51.364;6.054;2022-08-01T01:30:33;101367.88;;;19.82;98.95
65880;BME280;52661;51.364;6.054;2022-08-01T01:33:03;101366.66;;;19.83;99.11
65880;BME280;52661;51.364;6.054;2022-08-01T01:35:35;101368.31;;;19.81;99.48
65880;BME280;52661;51.364;6.054;2022-08-01T01:38:09;101360.81;;;19.81;99.70
65880;BME280;52661;51.364;6.054;2022-08-01T01:40:37;101369.19;;;19.78;99.73
65880;BME280;52661;51.364;6.054;2022-08-01T01:43:04;101362.22;;;19.73;100.00
65880;BME280;52661;51.364;6.054;2022-08-01T01:45:34;101372.47;;;19.73;100.00
65880;BME280;52661;51.364;6.054;2022-08-01T01:48:01;101363.00;;;19.74;100.00
65880;BME280;52661;51.364;6.054;2022-08-01T01:50:27;101364.78;;;19.80;99.68
65880;BME280;52661;51.364;6.054;2022-08-01T01:52:55;101360.66;;;19.72;100.00
65880;BME280;52661;51.364;6.054;2022-08-01T01:55:21;101359.69;;;19.79;100.00
65880;BME280;52661;51.364;6.054;2022-08-01T01:57:50;101365.13;;;19.82;100.00
65880;BME280;52661;51.364;6.054;2022-08-01T02:00:17;101358.09;;;19.94;99.87
65880;BME280;52661;51.364;6.054;2022-08-01T02:02:42;101357.00;;;19.91;99.38
65880;BME280;52661;51.364;6.054;2022-08-01T02:05:11;101357.19;;;19.84;99.86
65880;BME280;52661;51.364;6.054;2022-08-01T02:07:37;101362.75;;;19.68;100.00
65880;BME280;52661;51.364;6.054;2022-08-01T02:10:04;101353.84;;;19.77;100.00
65880;BME280;52661;51.364;6.054;2022-08-01T02:12:33;101358.94;;;19.78;100.00
65880;BME280;52661;51.364;6.054;2022-08-01T02:15:00;101355.94;;;19.73;100.00
65880;BME280;52661;51.364;6.054;2022-08-01T02:17:26;101356.50;;;19.80;100.00
65880;BME280;52661;51.364;6.054;2022-08-01T02:19:53;101354.00;;;19.86;100.00
65880;BME280;52661;51.364;6.054;2022-08-01T02:22:25;101356.38;;;19.71;100.00
65880;BME280;52661;51.364;6.054;2022-08-01T02:24:59;101355.16;;;19.72;100.00
65880;BME280;52661;51.364;6.054;2022-08-01T02:27:31;101362.53;;;19.75;100.00
65880;BME280;52661;51.364;6.054;2022-08-01T02:30:02;101359.13;;;19.71;100.00
65880;BME280;52661;51.364;6.054;2022-08-01T02:35:02;101359.78;;;19.75;100.00
65880;BME280;52661;51.364;6.054;2022-08-01T02:37:31;101355.94;;;19.73;100.00
65880;BME280;52661;51.364;6.054;2022-08-01T02:39:59;101351.09;;;19.77;100.00
65880;BME280;52661;51.364;6.054;2022-08-01T02:42:26;101357.19;;;19.84;100.00
65880;BME280;52661;51.364;6.054;2022-08-01T02:44:53;101355.22;;;19.85;100.00
65880;BME280;52661;51.364;6.054;2022-08-01T02:47:20;101361.91;;;19.84;100.00
65880;BME280;52661;51.364;6.054;2022-08-01T02:49:48;101356.88;;;19.82;100.00
65880;BME280;52661;51.364;6.054;2022-08-01T02:52:16;101358.38;;;19.83;100.00
65880;BME280;52661;51.364;6.054;2022-08-01T02:54:44;101364.47;;;19.78;100.00
65880;BME280;52661;51.364;6.054;2022-08-01T02:57:12;101361.69;;;19.78;100.00
65880;BME280;52661;51.364;6.054;2022-08-01T02:59:38;101363.69;;;19.78;100.00
65880;BME280;52661;51.364;6.054;2022-08-01T03:02:06;101357.03;;;19.75;100.00
65880;BME280;52661;51.364;6.054;2022-08-01T03:04:37;101361.34;;;19.76;100.00
65880;BME280;52661;51.364;6.054;2022-08-01T03:07:05;101354.84;;;19.70;100.00
65880;BME280;52661;51.364;6.054;2022-08-01T03:09:34;101365.31;;;19.75;100.00
65880;BME280;52661;51.364;6.054;2022-08-01T03:12:02;101364.09;;;19.76;100.00
65880;BME280;52661;51.364;6.054;2022-08-01T03:14:30;101367.31;;;19.75;100.00
65880;BME280;52661;51.364;6.054;2022-08-01T03:16:59;101359.13;;;19.71;100.00
65880;BME280;52661;51.364;6.054;2022-08-01T03:19:26;101361.03;;;19.74;100.00
65880;BME280;52661;51.364;6.054;2022-08-01T03:21:53;101360.91;;;19.78;100.00
65880;BME280;52661;51.364;6.054;2022-08-01T03:24:21;101361.91;;;19.84;100.00
65880;BME280;52661;51.364;6.054;2022-08-01T03:26:47;101364.25;;;19.85;100.00
65880;BME280;52661;51.364;6.054;2022-08-01T03:29:19;101364.78;;;19.80;100.00
65880;BME280;52661;51.364;6.054;2022-08-01T03:31:48;101360.81;;;19.81;100.00
65880;BME280;52661;51.364;6.054;2022-08-01T03:34:14;101360.28;;;19.86;100.00
65880;BME280;52661;51.364;6.054;2022-08-01T03:37:02;101357.28;;;19.81;100.00
65880;BME280;52661;51.364;6.054;2022-08-01T03:39:34;101362.28;;;19.86;100.00
65880;BME280;52661;51.364;6.054;2022-08-01T03:42:08;101363.13;;;19.83;100.00
65880;BME280;52661;51.364;6.054;2022-08-01T03:44:36;101363.38;;;19.88;100.00
65880;BME280;52661;51.364;6.054;2022-08-01T03:47:06;101363.81;;;19.87;100.00
65880;BME280;52661;51.364;6.054;2022-08-01T03:49:40;101364.34;;;19.82;100.00
65880;BME280;52661;51.364;6.054;2022-08-01T03:52:07;101373.47;;;19.79;100.00
65880;BME280;52661;51.364;6.054;2022-08-01T03:54:37;101380.97;;;19.78;100.00
65880;BME280;52661;51.364;6.054;2022-08-01T03:57:04;101380.53;;;19.80;100.00
65880;BME280;52661;51.364;6.054;2022-08-01T03:59:30;101381.91;;;19.72;100.00
65880;BME280;52661;51.364;6.054;2022-08-01T04:01:57;101375.22;;;19.73;100.00
65880;BME280;52661;51.364;6.054;2022-08-01T04:04:23;101381.81;;;19.75;100.00
65880;BME280;52661;51.364;6.054;2022-08-01T04:06:49;101377.34;;;19.81;100.00
65880;BME280;52661;51.364;6.054;2022-08-01T04:09:19;101375.13;;;19.76;100.00
65880;BME280;52661;51.364;6.054;2022-08-01T04:11:44;101362.91;;;19.77;100.00
65880;BME280;52661;51.364;6.054;2022-08-01T04:14:10;101377.56;;;19.74;100.00
65880;BME280;52661;51.364;6.054;2022-08-01T04:16:35;101378.44;;;19.71;100.00
65880;BME280;52661;51.364;6.054;2022-08-01T04:19:00;101377.19;;;19.72;100.00
65880;BME280;52661;51.364;6.054;2022-08-01T04:21:27;101385.13;;;19.70;100.00
65880;BME280;52661;51.364;6.054;2022-08-01T04:23:58;101387.34;;;19.75;100.00
65880;BME280;52661;51.364;6.054;2022-08-01T04:26:25;101387.00;;;19.73;100.00
65880;BME280;52661;51.364;6.054;2022-08-01T04:28:53;101391.66;;;19.76;100.00
65880;BME280;52661;51.364;6.054;2022-08-01T04:31:20;101397.16;;;19.76;100.00
65880;BME280;52661;51.364;6.054;2022-08-01T04:33:49;101405.00;;;19.78;100.00
65880;BME280;52661;51.364;6.054;2022-08-01T04:36:19;101399.59;;;19.74;100.00
65880;BME280;52661;51.364;6.054;2022-08-01T04:38:50;101409.03;;;19.73;100.00
65880;BME280;52661;51.364;6.054;2022-08-01T04:41:18;101409.81;;;19.74;100.00
65880;BME280;52661;51.364;6.054;2022-08-01T04:43:44;101407.06;;;19.74;100.00
65880;BME280;52661;51.364;6.054;2022-08-01T04:46:09;101406.28;;;19.73;100.00
65880;BME280;52661;51.364;6.054;2022-08-01T04:48:37;101413.34;;;19.74;100.00
65880;BME280;52661;51.364;6.054;2022-08-01T04:51:04;101408.28;;;19.73;100.00
65880;BME280;52661;51.364;6.054;2022-08-01T04:53:29;101405.50;;;19.73;100.00
65880;BME280;52661;51.364;6.054;2022-08-01T04:55:57;101412.56;;;19.74;100.00
65880;BME280;52661;51.364;6.054;2022-08-01T04:58:23;101418.00;;;19.77;100.00
65880;BME280;52661;51.364;6.054;2022-08-01T05:00:48;101428.91;;;19.81;100.00
65880;BME280;52661;51.364;6.054;2022-08-01T05:03:13;101424.97;;;19.82;100.00
65880;BME280;52661;51.364;6.054;2022-08-01T05:05:39;101418.31;;;19.79;100.00
65880;BME280;52661;51.364;6.054;2022-08-01T05:08:04;101420.28;;;19.79;100.00
65880;BME280;52661;51.364;6.054;2022-08-01T05:10:31;101423.34;;;19.68;100.00
65880;BME280;52661;51.364;6.054;2022-08-01T05:12:56;101438.75;;;19.65;100.00
65880;BME280;52661;51.364;6.054;2022-08-01T05:15:22;101431.84;;;19.74;100.00
65880;BME280;52661;51.364;6.054;2022-08-01T05:17:47;101440.03;;;19.77;100.00
65880;BME280;52661;51.364;6.054;2022-08-01T05:20:12;101429.78;;;19.78;99.89
65880;BME280;52661;51.364;6.054;2022-08-01T05:22:38;101436.81;;;19.79;99.20
65880;BME280;52661;51.364;6.054;2022-08-01T05:25:05;101437.28;;;19.77;99.03
65880;BME280;52661;51.364;6.054;2022-08-01T05:27:31;101442.19;;;19.70;99.18
65880;BME280;52661;51.364;6.054;2022-08-01T05:29:56;101434.03;;;19.66;98.98
65880;BME280;52661;51.364;6.054;2022-08-01T05:32:22;101437.56;;;19.67;99.34
65880;BME280;52661;51.364;6.054;2022-08-01T05:34:47;101435.50;;;19.54;99.11
65880;BME280;52661;51.364;6.054;2022-08-01T05:37:12;101435.41;;;19.58;98.76
65880;BME280;52661;51.364;6.054;2022-08-01T05:39:38;101438.16;;;19.58;99.33
65880;BME280;52661;51.364;6.054;2022-08-01T05:42:03;101435.13;;;19.69;99.26
65880;BME280;52661;51.364;6.054;2022-08-01T05:44:28;101447.94;;;19.75;99.55
65880;BME280;52661;51.364;6.054;2022-08-01T05:46:54;101448.28;;;19.77;98.88
65880;BME280;52661;51.364;6.054;2022-08-01T05:49:19;101447.19;;;19.75;98.45
65880;BME280;52661;51.364;6.054;2022-08-01T05:51:44;101442.19;;;19.70;98.24
65880;BME280;52661;51.364;6.054;2022-08-01T05:54:10;101443.38;;;19.69;98.60
65880;BME280;52661;51.364;6.054;2022-08-01T05:56:35;101447.19;;;19.75;98.62
65880;BME280;52661;51.364;6.054;2022-08-01T05:59:01;101446.41;;;19.74;98.91
65880;BME280;52661;51.364;6.054;2022-08-01T06:01:26;101447.41;;;19.80;98.63
65880;BME280;52661;51.364;6.054;2022-08-01T06:03:51;101444.84;;;19.73;97.08
65880;BME280;52661;51.364;6.054;2022-08-01T06:06:19;101451.41;;;19.63;97.95
65880;BME280;52661;51.364;6.054;2022-08-01T06:08:44;101445.81;;;19.67;98.41
65880;BME280;52661;51.364;6.054;2022-08-01T06:11:10;101443.66;;;19.58;97.49
65880;BME280;52661;51.364;6.054;2022-08-01T06:13:35;101440.75;;;19.49;97.70
65880;BME280;52661;51.364;6.054;2022-08-01T06:16:00;101437.66;;;19.63;97.57
65880;BME280;52661;51.364;6.054;2022-08-01T06:18:25;101434.63;;;19.74;97.14
65880;BME280;52661;51.364;6.054;2022-08-01T06:20:51;101433.31;;;19.78;96.41
65880;BME280;52661;51.364;6.054;2022-08-01T06:23:16;101431.06;;;19.89;96.63
65880;BME280;52661;51.364;6.054;2022-08-01T06:25:43;101439.78;;;20.00;96.68
65880;BME280;52661;51.364;6.054;2022-08-01T06:28:08;101439.13;;;19.96;95.89
65880;BME280;52661;51.364;6.054;2022-08-01T06:30:33;101439.56;;;19.95;96.28
65880;BME280;52661;51.364;6.054;2022-08-01T06:32:59;101437.13;;;19.97;96.56
65880;BME280;52661;51.364;6.054;2022-08-01T06:35:25;101437.22;;;19.93;96.13
65880;BME280;52661;51.364;6.054;2022-08-01T06:37:51;101441.88;;;19.96;95.69
65880;BME280;52661;51.364;6.054;2022-08-01T06:40:16;101446.94;;;19.98;95.43
65880;BME280;52661;51.364;6.054;2022-08-01T06:42:43;101441.09;;;19.96;95.54
65880;BME280;52661;51.364;6.054;2022-08-01T06:45:11;101443.97;;;19.92;95.38
65880;BME280;52661;51.364;6.054;2022-08-01T06:47:38;101444.97;;;19.98;95.77
65880;BME280;52661;51.364;6.054;2022-08-01T06:50:04;101451.47;;;20.04;95.67
65880;BME280;52661;51.364;6.054;2022-08-01T06:52:29;101452.91;;;19.96;95.24
65880;BME280;52661;51.364;6.054;2022-08-01T06:54:55;101460.41;;;19.96;95.86
65880;BME280;52661;51.364;6.054;2022-08-01T06:57:20;101464.78;;;19.93;96.08
65880;BME280;52661;51.364;6.054;2022-08-01T06:59:46;101457.16;;;19.85;95.60
65880;BME280;52661;51.364;6.054;2022-08-01T07:02:11;101461.97;;;19.81;96.27
65880;BME280;52661;51.364;6.054;2022-08-01T07:04:36;101457.38;;;19.90;96.74
65880;BME280;52661;51.364;6.054;2022-08-01T07:07:02;101471.41;;;19.96;96.05
65880;BME280;52661;51.364;6.054;2022-08-01T07:09:27;101456.84;;;19.95;94.13
65880;BME280;52661;51.364;6.054;2022-08-01T07:11:53;101462.69;;;19.97;93.05
65880;BME280;52661;51.364;6.054;2022-08-01T07:14:20;101464.97;;;20.15;94.09
65880;BME280;52661;51.364;6.054;2022-08-01T07:16:45;101463.41;;;20.30;92.38
65880;BME280;52661;51.364;6.054;2022-08-01T07:19:11;101469.94;;;20.36;92.48
65880;BME280;52661;51.364;6.054;2022-08-01T07:21:37;101463.34;;;20.46;91.31
65880;BME280;52661;51.364;6.054;2022-08-01T07:24:03;101469.06;;;20.52;91.31
65880;BME280;52661;51.364;6.054;2022-08-01T07:26:29;101467.66;;;20.60;91.17
65880;BME280;52661;51.364;6.054;2022-08-01T07:28:54;101474.72;;;20.61;90.77
65880;BME280;52661;51.364;6.054;2022-08-01T07:31:20;101480.25;;;20.61;90.29
65880;BME280;52661;51.364;6.054;2022-08-01T07:33:45;101479.22;;;20.55;90.48
65880;BME280;52661;51.364;6.054;2022-08-01T07:36:11;101473.38;;;20.53;90.79
65880;BME280;52661;51.364;6.054;2022-08-01T07:38:36;101474.25;;;20.50;91.00
65880;BME280;52661;51.364;6.054;2022-08-01T07:41:02;101476.66;;;20.35;90.49
65880;BME280;52661;51.364;6.054;2022-08-01T07:43:27;101479.22;;;20.42;91.01
65880;BME280;52661;51.364;6.054;2022-08-01T07:45:52;101483.88;;;20.58;91.30
65880;BME280;52661;51.364;6.054;2022-08-01T07:48:18;101482.75;;;20.55;90.42
65880;BME280;52661;51.364;6.054;2022-08-01T07:50:45;101482.66;;;20.46;89.75
65880;BME280;52661;51.364;6.054;2022-08-01T07:53:11;101486.50;;;20.49;91.39
65880;BME280;52661;51.364;6.054;2022-08-01T07:55:36;101488.47;;;20.48;90.80
65880;BME280;52661;51.364;6.054;2022-08-01T07:58:01;101490.44;;;20.35;91.21
65880;BME280;52661;51.364;6.054;2022-08-01T08:00:26;101490.25;;;20.26;90.98
65880;BME280;52661;51.364;6.054;2022-08-01T08:02:53;101489.34;;;20.17;90.98
65880;BME280;52661;51.364;6.054;2022-08-01T08:05:19;101497.09;;;20.22;91.68
65880;BME280;52661;51.364;6.054;2022-08-01T08:07:45;101491.44;;;20.41;91.55
65880;BME280;52661;51.364;6.054;2022-08-01T08:10:10;101487.34;;;20.33;90.34
65880;BME280;52661;51.364;6.054;2022-08-01T08:12:36;101480.56;;;20.50;90.53
65880;BME280;52661;51.364;6.054;2022-08-01T08:15:01;101494.19;;;20.41;89.20
65880;BME280;52661;51.364;6.054;2022-08-01T08:17:30;101495.25;;;20.60;89.92
65880;BME280;52661;51.364;6.054;2022-08-01T08:19:57;101505.13;;;20.86;89.57
65880;BME280;52661;51.364;6.054;2022-08-01T08:22:22;101506.31;;;20.85;87.06
65880;BME280;52661;51.364;6.054;2022-08-01T08:24:47;101506.22;;;20.89;87.36
65880;BME280;52661;51.364;6.054;2022-08-01T08:27:13;101495.91;;;20.77;85.52
65880;BME280;52661;51.364;6.054;2022-08-01T08:29:38;101502.03;;;20.97;87.69
65880;BME280;52661;51.364;6.054;2022-08-01T08:32:04;101504.31;;;20.73;86.66
65880;BME280;52661;51.364;6.054;2022-08-01T08:34:30;101502.09;;;20.68;87.62
65880;BME280;52661;51.364;6.054;2022-08-01T08:36:56;101500.66;;;20.63;87.62
65880;BME280;52661;51.364;6.054;2022-08-01T08:39:22;101497.69;;;20.71;87.53
65880;BME280;52661;51.364;6.054;2022-08-01T08:41:48;101505.31;;;20.92;87.36
65880;BME280;52661;51.364;6.054;2022-08-01T08:44:13;101497.97;;;21.01;86.76
65880;BME280;52661;51.364;6.054;2022-08-01T08:46:47;101503.16;;;21.25;84.72
65880;BME280;52661;51.364;6.054;2022-08-01T08:49:26;101503.47;;;21.39;83.02
65880;BME280;52661;51.364;6.054;2022-08-01T08:51:53;101510.41;;;21.56;83.08
65880;BME280;52661;51.364;6.054;2022-08-01T08:54:21;101508.84;;;21.68;80.57
65880;BME280;52661;51.364;6.054;2022-08-01T08:56:48;101504.53;;;21.67;81.21
65880;BME280;52661;51.364;6.054;2022-08-01T08:59:14;101510.94;;;21.64;83.23
65880;BME280;52661;51.364;6.054;2022-08-01T09:01:41;101506.31;;;21.61;82.42
65880;BME280;52661;51.364;6.054;2022-08-01T09:04:06;101507.06;;;21.74;82.40
65880;BME280;52661;51.364;6.054;2022-08-01T09:06:32;101512.19;;;21.63;80.28
65880;BME280;52661;51.364;6.054;2022-08-01T09:08:58;101511.59;;;21.68;80.51
65880;BME280;52661;51.364;6.054;2022-08-01T09:11:24;101522.91;;;21.61;82.63
65880;BME280;52661;51.364;6.054;2022-08-01T09:14:15;101517.13;;;21.68;82.21
65880;BME280;52661;51.364;6.054;2022-08-01T09:17:00;101519.41;;;21.82;80.51
65880;BME280;52661;51.364;6.054;2022-08-01T09:19:34;101509.03;;;21.86;78.23
65880;BME280;52661;51.364;6.054;2022-08-01T09:22:03;101510.47;;;21.91;77.92
65880;BME280;52661;51.364;6.054;2022-08-01T09:24:30;101510.66;;;21.96;77.70
65880;BME280;52661;51.364;6.054;2022-08-01T09:26:56;101515.69;;;22.11;77.65
65880;BME280;52661;51.364;6.054;2022-08-01T09:29:23;101514.97;;;22.10;76.95
65880;BME280;52661;51.364;6.054;2022-08-01T09:31:50;101520.16;;;22.08;76.41
65880;BME280;52661;51.364;6.054;2022-08-01T09:34:16;101522.53;;;22.19;77.77
65880;BME280;52661;51.364;6.054;2022-08-01T09:36:56;101516.56;;;22.20;74.72
65880;BME280;52661;51.364;6.054;2022-08-01T09:39:27;101515.84;;;22.29;74.33
65880;BME280;52661;51.364;6.054;2022-08-01T09:41:55;101517.41;;;22.30;71.52
65880;BME280;52661;51.364;6.054;2022-08-01T09:44:40;101520.13;;;22.42;71.84
65880;BME280;52661;51.364;6.054;2022-08-01T09:47:06;101518.56;;;22.41;70.48
65880;BME280;52661;51.364;6.054;2022-08-01T09:49:33;101518.81;;;22.56;72.87
65880;BME280;52661;51.364;6.054;2022-08-01T09:52:11;101522.22;;;22.60;71.27
65880;BME280;52661;51.364;6.054;2022-08-01T09:54:37;101517.09;;;22.71;69.15
65880;BME280;52661;51.364;6.054;2022-08-01T09:57:09;101518.63;;;22.72;68.78
65880;BME280;52661;51.364;6.054;2022-08-01T09:59:37;101520.50;;;22.75;71.81
65880;BME280;52661;51.364;6.054;2022-08-01T10:02:05;101515.78;;;22.63;71.57
65880;BME280;52661;51.364;6.054;2022-08-01T10:04:31;101514.06;;;22.56;70.88
65880;BME280;52661;51.364;6.054;2022-08-01T10:07:04;101514.56;;;22.64;69.11
65880;BME280;52661;51.364;6.054;2022-08-01T10:09:32;101516.88;;;22.66;70.13
65880;BME280;52661;51.364;6.054;2022-08-01T10:12:03;101520.09;;;22.64;71.64
65880;BME280;52661;51.364;6.054;2022-08-01T10:14:30;101518.88;;;22.43;70.75
65880;BME280;52661;51.364;6.054;2022-08-01T10:16:57;101517.88;;;22.28;71.47
65880;BME280;52661;51.364;6.054;2022-08-01T10:19:25;101514.38;;;22.15;69.86
65880;BME280;52661;51.364;6.054;2022-08-01T10:21:52;101518.94;;;22.09;70.65
65880;BME280;52661;51.364;6.054;2022-08-01T10:24:23;101519.84;;;22.28;71.85
65880;BME280;52661;51.364;6.054;2022-08-01T10:26:52;101517.22;;;22.46;68.01
65880;BME280;52661;51.364;6.054;2022-08-01T10:29:20;101531.09;;;22.55;65.01
65880;BME280;52661;51.364;6.054;2022-08-01T10:31:46;101524.75;;;22.67;66.94
65880;BME280;52661;51.364;6.054;2022-08-01T10:34:15;101532.69;;;22.87;65.31
65880;BME280;52661;51.364;6.054;2022-08-01T10:36:44;101526.63;;;23.01;66.59
65880;BME280;52661;51.364;6.054;2022-08-01T10:39:11;101529.94;;;23.18;67.02
65880;BME280;52661;51.364;6.054;2022-08-01T10:41:37;101529.38;;;23.32;67.67
65880;BME280;52661;51.364;6.054;2022-08-01T10:44:03;101527.22;;;23.36;66.07
65880;BME280;52661;51.364;6.054;2022-08-01T10:46:30;101518.22;;;23.53;66.85
65880;BME280;52661;51.364;6.054;2022-08-01T10:49:03;101520.66;;;23.42;65.34
65880;BME280;52661;51.364;6.054;2022-08-01T10:51:29;101514.00;;;23.40;63.35
65880;BME280;52661;51.364;6.054;2022-08-01T10:53:55;101520.72;;;23.61;62.58
65880;BME280;52661;51.364;6.054;2022-08-01T10:56:23;101510.56;;;23.76;62.93
65880;BME280;52661;51.364;6.054;2022-08-01T10:58:49;101507.63;;;23.70;64.45
65880;BME280;52661;51.364;6.054;2022-08-01T11:03:44;101513.25;;;23.39;65.08
65880;BME280;52661;51.364;6.054;2022-08-01T11:06:28;101507.16;;;23.14;67.94
65880;BME280;52661;51.364;6.054;2022-08-01T11:09:21;101509.50;;;22.93;68.18
65880;BME280;52661;51.364;6.054;2022-08-01T11:11:57;101505.63;;;22.82;67.19
65880;BME280;52661;51.364;6.054;2022-08-01T11:14:23;101515.16;;;22.81;68.07
65880;BME280;52661;51.364;6.054;2022-08-01T11:16:48;101510.06;;;22.79;67.34
65880;BME280;52661;51.364;6.054;2022-08-01T11:19:14;101504.78;;;22.72;64.28
65880;BME280;52661;51.364;6.054;2022-08-01T11:21:59;101502.50;;;22.71;65.95
65880;BME280;52661;51.364;6.054;2022-08-01T11:27:18;101523.41;;;22.50;70.78
65880;BME280;52661;51.364;6.054;2022-08-01T11:29:43;101517.78;;;22.41;71.15
65880;BME280;52661;51.364;6.054;2022-08-01T11:32:25;101519.78;;;22.40;71.06
65880;BME280;52661;51.364;6.054;2022-08-01T11:34:55;101526.16;;;22.50;71.48
65880;BME280;52661;51.364;6.054;2022-08-01T11:37:30;101522.31;;;22.69;71.38
65880;BME280;52661;51.364;6.054;2022-08-01T11:40:22;101524.22;;;22.81;70.90
65880;BME280;52661;51.364;6.054;2022-08-01T11:42:49;101520.13;;;22.95;70.33
65880;BME280;52661;51.364;6.054;2022-08-01T11:45:15;101521.56;;;22.99;68.71
65880;BME280;52661;51.364;6.054;2022-08-01T11:47:50;101521.94;;;23.20;68.22
65880;BME280;52661;51.364;6.054;2022-08-01T11:53:02;101521.38;;;23.83;64.56
65880;BME280;52661;51.364;6.054;2022-08-01T11:55:28;101524.16;;;24.01;62.39
65880;BME280;52661;51.364;6.054;2022-08-01T11:58:12;101520.63;;;24.28;61.23
65880;BME280;52661;51.364;6.054;2022-08-01T12:00:38;101520.91;;;24.39;60.88
65880;BME280;52661;51.364;6.054;2022-08-01T12:03:05;101520.63;;;24.37;63.86
65880;BME280;52661;51.364;6.054;2022-08-01T12:05:32;101519.69;;;23.94;65.48
65880;BME280;52661;51.364;6.054;2022-08-01T12:07:59;101521.50;;;23.79;65.32
65880;BME280;52661;51.364;6.054;2022-08-01T12:10:32;101514.28;;;23.73;68.64
65880;BME280;52661;51.364;6.054;2022-08-01T12:13:03;101513.25;;;23.39;68.37
65880;BME280;52661;51.364;6.054;2022-08-01T12:15:33;101513.66;;;23.29;70.32
65880;BME280;52661;51.364;6.054;2022-08-01T12:18:03;101514.38;;;23.11;67.57
65880;BME280;52661;51.364;6.054;2022-08-01T12:20:33;101525.38;;;22.93;69.45
65880;BME280;52661;51.364;6.054;2022-08-01T12:23:04;101532.06;;;22.61;71.12
65880;BME280;52661;51.364;6.054;2022-08-01T12:25:33;101536.97;;;22.57;72.20
65880;BME280;52661;51.364;6.054;2022-08-01T12:28:01;101537.84;;;22.54;73.47
65880;BME280;52661;51.364;6.054;2022-08-01T12:30:27;101537.47;;;22.43;74.31
65880;BME280;52661;51.364;6.054;2022-08-01T12:32:53;101538.09;;;22.25;74.67
65880;BME280;52661;51.364;6.054;2022-08-01T12:38:30;101542.66;;;22.19;75.78
65880;BME280;52661;51.364;6.054;2022-08-01T12:40:57;101545.00;;;22.21;76.02
65880;BME280;52661;51.364;6.054;2022-08-01T12:43:23;101541.38;;;22.33;74.99
65880;BME280;52661;51.364;6.054;2022-08-01T12:45:52;101546.66;;;22.62;75.08
65880;BME280;52661;51.364;6.054;2022-08-01T12:48:18;101547.84;;;22.73;72.30
65880;BME280;52661;51.364;6.054;2022-08-01T12:50:46;101550.34;;;22.80;72.56
65880;BME280;52661;51.364;6.054;2022-08-01T12:53:13;101558.53;;;22.84;73.65
65880;BME280;52661;51.364;6.054;2022-08-01T12:55:57;101554.72;;;22.69;72.13
65880;BME280;52661;51.364;6.054;2022-08-01T12:58:23;101556.22;;;22.61;72.05
65880;BME280;52661;51.364;6.054;2022-08-01T13:00:50;101556.59;;;22.50;71.98
65880;BME280;52661;51.364;6.054;2022-08-01T13:03:27;101567.28;;;22.61;71.59
65880;BME280;52661;51.364;6.054;2022-08-01T13:05:57;101564.16;;;22.71;72.24
65880;BME280;52661;51.364;6.054;2022-08-01T13:08:28;101563.94;;;22.87;71.93